CBT9 weather

Sproat Lake Tanker Base Heliport
Port Alberni, British Columbia, Canada

Public forecast

Using degrees Celsius for public forecast. Weather courtesy of forecast.io.

Closest aviation weather report (METAR) to Sproat Lake Tanker Base Heliport

Closest report is Comox Airport, 25.4 nm (47.0 km) N. Retrieved 2020/08/04 01:00 UTC (53 minutes ago):

CYQQ 040100Z 00000KT 12SM -SHRA FEW015 SCT028 BKN045 18/17 A3017 RMK CF1CU3SC4 SLP216

Closest aviation forecast (TAF) to Sproat Lake Tanker Base Heliport

Closest forecast is Comox Airport, 25.4 nm (47.0 km) N. Retrieved 2020-08-04 00:39 UTC (1 hour ago):

TAF TAF CYQQ 032335Z 0400/0424 33010KT P6SM SCT030 BKN050 TEMPO 0400/0404 P6SM -SHRA BKN030 FM040400 33008KT P6SM SCT050 BKN080 TEMPO 0404/0409 BKN050 FM040900 33008KT P6SM SCT015 SCT050 TEMPO 0409/0416 BKN015 FM041600 35010KT P6SM FEW015 FEW050 RMK NXT FCST BY 040600Z